Lingwood, United Kingdom
Current Conditions -  °F | °C
As of 7:20 PM on Wednesday 17 Dec 2014 (Local Time) from EGSD Reporting Station
Broken Clouds Broken Clouds  
Wind Chill: 52°   Ceiling: 1300
Heat Index: 52°   Visibility: 6mi
Dew Point: 50°   Wind: 13mph
Humidity: 94%   Direction: 230°SW
Pressure: 29.71"   Gusts: NA
Location:  52.62°N, 1.49°E
Report Text: EGSD 171920Z 23011KT 9999 BKN013 11/10 Q1006
Loading
Personal Weather Stations






























Interactive Weather Map New forecast layout! Learn more

10-Day Weather Forecast

Advertisements
Track Severe Weather on mobile